Time;durP1;ratioP1;P1;durP2;ratioP2;P2;SDS_P1;SDS_P2;PMS_P1;PMS_P2;Temp;Humidity;BMP_temperature;BMP_pressure;BME280_temperature;BME280_humidity;BME280_pressure;Samples;Min_cycle;Max_cycle;Signal;HPM_P1;HPM_P2
2022/04/23 00:01:47;;;;;;;5.07;4.03;;;11.00;99.90;;;;;;4932572;28;20995;-80
2022/04/23 00:04:13;;;;;;;6.50;4.45;;;10.90;99.90;;;;;;4918215;28;20117;-79
2022/04/23 00:06:39;;;;;;;6.00;3.97;;;10.90;99.90;;;;;;4933804;28;20047;-80
2022/04/23 00:09:05;;;;;;;6.72;4.25;;;10.90;99.90;;;;;;4934591;28;20087;-79
2022/04/23 00:11:32;;;;;;;7.22;4.15;;;10.90;99.90;;;;;;4949327;28;20137;-79
2022/04/23 00:13:59;;;;;;;7.32;4.00;;;10.80;99.90;;;;;;4949146;28;20055;-81
2022/04/23 00:16:25;;;;;;;5.72;3.88;;;10.80;99.90;;;;;;4919118;28;20045;-79
2022/04/23 00:18:51;;;;;;;8.20;4.20;;;10.80;99.90;;;;;;4921337;28;20515;-79
2022/04/23 00:21:18;;;;;;;8.48;4.35;;;10.80;99.90;;;;;;4942284;28;20051;-79
2022/04/23 00:23:46;;;;;;;6.65;4.22;;;10.70;99.90;;;;;;4935164;28;20551;-79
2022/04/23 00:26:12;;;;;;;6.18;4.43;;;10.70;99.90;;;;;;4937168;28;20121;-79
2022/04/23 00:28:37;;;;;;;9.25;4.45;;;10.70;99.90;;;;;;4920146;28;20048;-80
2022/04/23 00:31:04;;;;;;;7.82;4.32;;;10.70;99.90;;;;;;4939223;28;20149;-79
2022/04/23 00:33:30;;;;;;;7.95;4.65;;;10.60;99.90;;;;;;4938071;28;20039;-79
2022/04/23 00:35:55;;;;;;;7.75;4.50;;;10.60;99.90;;;;;;4936862;28;20049;-79
2022/04/23 00:38:21;;;;;;;6.15;4.40;;;10.60;99.90;;;;;;4937221;28;20063;-80
2022/04/23 00:40:48;;;;;;;5.28;4.32;;;10.60;99.90;;;;;;4942147;28;20123;-79
2022/04/23 00:43:27;;;;;;;5.97;4.72;;;10.60;99.90;;;;;;4936145;28;20106;-79
2022/04/23 00:45:54;;;;;;;7.03;4.82;;;10.50;99.90;;;;;;4909763;28;20051;-79
2022/04/23 00:48:21;;;;;;;9.15;4.47;;;10.40;99.90;;;;;;4939520;28;20500;-79
2022/04/23 00:50:52;;;;;;;8.48;4.80;;;10.40;99.90;;;;;;4939280;28;20054;-79
2022/04/23 00:53:19;;;;;;;6.93;5.25;;;10.40;99.90;;;;;;4926481;28;20157;-79
2022/04/23 00:55:46;;;;;;;7.28;4.63;;;10.40;99.90;;;;;;4910096;28;20440;-79
2022/04/23 00:58:16;;;;;;;6.75;4.57;;;10.40;99.90;;;;;;4953432;28;20076;-78
2022/04/23 01:00:43;;;;;;;8.07;5.35;;;10.40;99.90;;;;;;4926210;28;20074;-81
2022/04/23 01:03:12;;;;;;;7.63;4.95;;;10.40;99.90;;;;;;4935788;28;20043;-79
2022/04/23 01:05:41;;;;;;;8.93;5.45;;;10.30;99.90;;;;;;4936895;28;20050;-79
2022/04/23 01:08:07;;;;;;;8.15;5.25;;;10.30;99.90;;;;;;4936667;28;20059;-79
2022/04/23 01:10:33;;;;;;;9.55;5.40;;;10.40;99.90;;;;;;4938889;28;20563;-79
2022/04/23 01:13:02;;;;;;;7.38;4.85;;;10.30;99.90;;;;;;4934325;28;20061;-79
2022/04/23 01:15:28;;;;;;;8.23;5.50;;;10.30;99.90;;;;;;4951784;28;20047;-79
2022/04/23 01:17:54;;;;;;;9.05;6.70;;;10.30;99.90;;;;;;4928417;28;20062;-79
2022/04/23 01:20:20;;;;;;;6.93;5.43;;;10.30;99.90;;;;;;4908135;28;20055;-79
2022/04/23 01:22:46;;;;;;;8.63;5.80;;;10.20;99.90;;;;;;4934936;28;20097;-79
2022/04/23 01:25:13;;;;;;;8.13;5.35;;;10.20;99.90;;;;;;4938914;28;20381;-79
2022/04/23 01:27:40;;;;;;;9.65;5.68;;;10.60;99.90;;;;;;4939578;28;20053;-80
2022/04/23 01:30:08;;;;;;;8.02;5.30;;;10.10;99.90;;;;;;4924049;28;20097;-79
2022/04/23 01:32:34;;;;;;;10.85;6.13;;;10.10;99.90;;;;;;4935815;28;20646;-79
2022/04/23 01:35:00;;;;;;;8.45;5.68;;;10.10;99.90;;;;;;4935252;28;20109;-79
2022/04/23 01:37:25;;;;;;;7.57;5.25;;;10.20;99.90;;;;;;4954076;28;20047;-79
2022/04/23 01:39:52;;;;;;;8.70;5.47;;;10.10;99.90;;;;;;4903387;28;20169;-79
2022/04/23 01:42:17;;;;;;;8.23;5.97;;;10.10;99.90;;;;;;4936102;28;20058;-79
2022/04/23 01:44:48;;;;;;;9.52;5.55;;;10.00;99.90;;;;;;4949559;28;20039;-79
2022/04/23 01:47:14;;;;;;;8.10;5.65;;;10.00;99.90;;;;;;4935427;28;20584;-79
2022/04/23 01:49:42;;;;;;;8.38;5.18;;;10.00;99.90;;;;;;4933766;28;20094;-79
2022/04/23 01:52:08;;;;;;;10.05;6.18;;;10.00;99.90;;;;;;4919835;28;20662;-78
2022/04/23 01:54:34;;;;;;;8.75;6.43;;;10.00;99.90;;;;;;4951712;28;20054;-79
2022/04/23 01:57:01;;;;;;;9.57;5.75;;;10.00;99.90;;;;;;4952126;28;20047;-79
2022/04/23 01:59:27;;;;;;;6.55;5.55;;;9.90;99.90;;;;;;4912792;28;20085;-79
2022/04/23 02:01:53;;;;;;;8.00;5.82;;;9.90;99.90;;;;;;4951809;28;20448;-79
2022/04/23 02:04:19;;;;;;;7.30;5.57;;;9.90;99.90;;;;;;4923061;28;20078;-79
2022/04/23 02:06:45;;;;;;;9.43;6.50;;;9.90;99.90;;;;;;4936029;28;20085;-79
2022/04/23 02:09:12;;;;;;;8.90;6.15;;;9.90;99.90;;;;;;4916645;28;20195;-79
2022/04/23 02:11:38;;;;;;;10.50;6.10;;;9.90;99.90;;;;;;4921074;28;20051;-79
2022/04/23 02:14:04;;;;;;;9.15;6.70;;;9.80;99.90;;;;;;4950712;28;20144;-79
2022/04/23 02:16:31;;;;;;;11.02;7.03;;;9.80;99.90;;;;;;4935470;28;20125;-79
2022/04/23 02:19:03;;;;;;;9.15;6.53;;;9.80;99.90;;;;;;4950977;28;20597;-79
2022/04/23 02:21:29;;;;;;;7.88;6.22;;;9.80;99.90;;;;;;4922275;28;20051;-79
2022/04/23 02:23:55;;;;;;;10.85;7.22;;;9.80;99.90;;;;;;4948965;28;20202;-79
2022/04/23 02:26:21;;;;;;;9.38;6.63;;;9.80;99.90;;;;;;4903717;28;20564;-79
2022/04/23 02:28:48;;;;;;;9.15;7.13;;;9.70;99.90;;;;;;4938427;28;20523;-79
2022/04/23 02:31:13;;;;;;;12.77;7.43;;;9.70;99.90;;;;;;4934803;28;20366;-79
2022/04/23 02:33:40;;;;;;;11.35;7.32;;;9.70;99.90;;;;;;4934750;28;20047;-79
2022/04/23 02:36:06;;;;;;;9.07;7.10;;;9.70;99.90;;;;;;4933624;28;20043;-79
2022/04/23 02:38:38;;;;;;;9.02;6.80;;;10.10;99.90;;;;;;4934031;28;20081;-79
2022/04/23 02:41:06;;;;;;;10.20;7.38;;;9.70;99.90;;;;;;4933121;28;20501;-79
2022/04/23 02:43:32;;;;;;;12.82;7.50;;;9.60;99.90;;;;;;4935488;28;20074;-79
2022/04/23 02:46:00;;;;;;;11.52;7.25;;;9.60;99.90;;;;;;4922601;28;20057;-79
2022/04/23 02:48:26;;;;;;;11.35;7.65;;;9.60;99.90;;;;;;4949416;28;20043;-79
2022/04/23 02:50:52;;;;;;;11.02;7.60;;;9.50;99.90;;;;;;4904600;28;20071;-79
2022/04/23 02:53:17;;;;;;;11.63;7.78;;;9.60;99.90;;;;;;4933372;28;20148;-79
2022/04/23 02:55:43;;;;;;;11.73;7.93;;;9.50;99.90;;;;;;4932328;28;20046;-79
2022/04/23 02:58:10;;;;;;;10.60;7.75;;;9.50;99.90;;;;;;4920596;28;20058;-79
2022/04/23 03:00:40;;;;;;;9.98;7.45;;;9.50;99.90;;;;;;4934279;28;20401;-81
2022/04/23 03:03:07;;;;;;;11.88;7.32;;;9.50;99.90;;;;;;4910083;28;20263;-80
2022/04/23 03:05:33;;;;;;;9.57;7.22;;;9.50;99.90;;;;;;4934681;28;20070;-80
2022/04/23 03:08:00;;;;;;;12.30;7.70;;;9.50;99.90;;;;;;4952039;28;20182;-79
2022/04/23 03:10:27;;;;;;;9.25;7.20;;;9.50;99.90;;;;;;4933472;28;20047;-80
2022/04/23 03:12:57;;;;;;;8.57;6.78;;;9.50;99.90;;;;;;4934112;28;20197;-79
2022/04/23 03:15:25;;;;;;;10.85;7.93;;;9.50;99.90;;;;;;4933185;28;20046;-80
2022/04/23 03:18:02;;;;;;;11.18;7.90;;;9.50;99.90;;;;;;4947442;28;20050;-79
2022/04/23 03:20:28;;;;;;;11.10;8.20;;;9.50;99.90;;;;;;4935943;28;20137;-82
2022/04/23 03:22:53;;;;;;;12.35;7.85;;;9.40;99.90;;;;;;4927757;28;20050;-79
2022/04/23 03:25:19;;;;;;;9.38;8.18;;;9.40;99.90;;;;;;4921496;28;20303;-78
2022/04/23 03:27:45;;;;;;;10.20;8.13;;;9.40;99.90;;;;;;4910581;28;20061;-78
2022/04/23 03:30:11;;;;;;;10.55;8.30;;;9.40;99.90;;;;;;4932207;28;20241;-79
2022/04/23 03:32:36;;;;;;;10.65;8.05;;;9.30;99.90;;;;;;4908185;28;20086;-79
2022/04/23 03:35:05;;;;;;;10.27;7.38;;;9.30;99.90;;;;;;4932532;28;20058;-79
2022/04/23 03:37:31;;;;;;;11.48;8.75;;;9.30;99.90;;;;;;4949570;28;20119;-80
2022/04/23 03:39:57;;;;;;;9.95;7.90;;;9.30;99.90;;;;;;4931674;28;20046;-80
2022/04/23 03:42:23;;;;;;;10.32;8.68;;;9.30;99.90;;;;;;4922894;28;20062;-80
2022/04/23 03:44:49;;;;;;;10.55;8.80;;;9.30;99.90;;;;;;4949498;28;20066;-80
2022/04/23 03:47:15;;;;;;;10.50;7.82;;;9.30;99.90;;;;;;4933370;28;20055;-80
2022/04/23 03:49:41;;;;;;;15.15;8.82;;;9.30;99.90;;;;;;4933548;28;20129;-79
2022/04/23 03:52:10;;;;;;;11.95;8.82;;;9.30;99.90;;;;;;4921981;28;20047;-80
2022/04/23 03:54:36;;;;;;;10.90;8.68;;;9.20;99.90;;;;;;4933591;28;20061;-79
2022/04/23 03:57:02;;;;;;;10.43;8.40;;;9.20;99.90;;;;;;4932720;28;20477;-79
2022/04/23 03:59:29;;;;;;;10.68;8.45;;;9.20;99.90;;;;;;4937482;28;20141;-79
2022/04/23 04:01:55;;;;;;;11.35;8.82;;;9.20;99.90;;;;;;4926928;28;20500;-79
2022/04/23 04:04:21;;;;;;;10.38;8.73;;;9.20;99.90;;;;;;4936787;28;20066;-80
2022/04/23 04:06:47;;;;;;;10.82;9.00;;;9.20;99.90;;;;;;4951068;28;20062;-80
2022/04/23 04:09:13;;;;;;;9.32;8.38;;;9.20;99.90;;;;;;4938390;28;20050;-79
2022/04/23 04:14:23;;;;;;;11.30;8.63;;;9.20;99.90;;;;;;4942361;28;20050;-80
2022/04/23 04:16:49;;;;;;;12.13;8.65;;;9.10;99.90;;;;;;4937152;28;20089;-79
2022/04/23 04:19:16;;;;;;;10.65;8.32;;;9.10;99.90;;;;;;4938199;28;20129;-80
2022/04/23 04:21:46;;;;;;;12.95;9.15;;;9.10;99.90;;;;;;4917272;28;20130;-79
2022/04/23 04:24:13;;;;;;;11.60;8.32;;;9.10;99.90;;;;;;4940504;28;20074;-79
2022/04/23 04:26:40;;;;;;;9.82;8.18;;;9.20;99.90;;;;;;4927455;28;20058;-79
2022/04/23 04:29:06;;;;;;;9.07;8.15;;;9.10;99.90;;;;;;4954325;28;20051;-79
2022/04/23 04:31:47;;;;;;;12.75;8.48;;;9.10;99.90;;;;;;4935900;28;20085;-79
2022/04/23 04:34:32;;;;;;;9.85;7.70;;;9.10;99.90;;;;;;4928393;28;20035;-79
2022/04/23 04:37:24;;;;;;;10.55;8.70;;;9.10;99.90;;;;;;4929274;28;20058;-79
2022/04/23 04:39:50;;;;;;;11.35;7.72;;;9.10;99.90;;;;;;4950761;28;20047;-80
2022/04/23 04:42:16;;;;;;;9.85;8.43;;;9.10;99.90;;;;;;4919347;28;20073;-80
2022/04/23 04:44:42;;;;;;;11.73;8.18;;;9.10;99.90;;;;;;4938230;28;20046;-80
2022/04/23 04:47:09;;;;;;;9.85;8.00;;;9.00;99.90;;;;;;4953667;28;20496;-80
2022/04/23 04:49:36;;;;;;;11.20;8.30;;;9.10;99.90;;;;;;4936186;28;20412;-80
2022/04/23 04:52:02;;;;;;;13.02;8.20;;;9.10;99.90;;;;;;4937296;28;20063;-80
2022/04/23 04:54:28;;;;;;;10.63;8.20;;;9.10;99.90;;;;;;4921721;28;20067;-80
2022/04/23 04:56:54;;;;;;;11.02;8.00;;;9.10;99.90;;;;;;4925006;28;20043;-80
2022/04/23 04:59:23;;;;;;;9.40;8.32;;;9.00;99.90;;;;;;4951745;28;20039;-80
2022/04/23 05:01:49;;;;;;;12.85;8.50;;;9.10;99.90;;;;;;4953103;28;20445;-79
2022/04/23 05:04:15;;;;;;;13.65;8.25;;;9.10;99.90;;;;;;4937554;28;20051;-80
2022/04/23 05:06:41;;;;;;;9.35;7.40;;;9.10;99.90;;;;;;4936998;28;20035;-80
2022/04/23 05:09:06;;;;;;;12.10;7.75;;;9.10;99.90;;;;;;4934857;28;20062;-80
2022/04/23 05:11:32;;;;;;;10.30;7.63;;;9.10;99.90;;;;;;4936910;28;20051;-79
2022/04/23 05:13:58;;;;;;;9.07;8.13;;;9.10;99.90;;;;;;4921116;28;20082;-81
2022/04/23 05:16:24;;;;;;;8.75;7.85;;;9.10;99.90;;;;;;4940485;28;20042;-80
2022/04/23 05:18:49;;;;;;;9.55;7.93;;;9.10;99.90;;;;;;4953062;28;20053;-80
2022/04/23 05:21:15;;;;;;;9.00;7.63;;;9.10;99.90;;;;;;4919868;28;20054;-79
2022/04/23 05:23:41;;;;;;;10.38;7.85;;;9.20;99.90;;;;;;4921844;28;20058;-80
2022/04/23 05:26:09;;;;;;;9.73;7.68;;;9.70;99.90;;;;;;4951049;28;20058;-80
2022/04/23 05:28:35;;;;;;;8.90;7.68;;;9.20;99.90;;;;;;4936736;28;20157;-79
2022/04/23 05:31:01;;;;;;;9.75;7.50;;;9.20;99.90;;;;;;4950985;28;20490;-79
2022/04/23 05:33:27;;;;;;;9.55;7.82;;;9.20;99.90;;;;;;4926198;28;20047;-79
2022/04/23 05:35:53;;;;;;;9.82;7.88;;;9.20;99.90;;;;;;4903604;28;20114;-79
2022/04/23 05:38:20;;;;;;;9.57;7.57;;;9.30;99.90;;;;;;4904614;28;20126;-79
2022/04/23 05:40:46;;;;;;;10.57;7.80;;;9.30;99.90;;;;;;4935432;28;20432;-79
2022/04/23 05:43:12;;;;;;;10.90;8.38;;;9.30;99.90;;;;;;4895193;28;20057;-80
2022/04/23 05:45:38;;;;;;;9.60;8.10;;;9.30;99.90;;;;;;4941366;28;20055;-81
2022/04/23 05:48:04;;;;;;;10.68;8.05;;;9.40;99.90;;;;;;4936534;28;20042;-79
2022/04/23 05:50:30;;;;;;;9.75;7.75;;;9.40;99.90;;;;;;4941666;28;20083;-79
2022/04/23 05:52:56;;;;;;;9.40;7.35;;;9.40;99.90;;;;;;4938265;28;20176;-78
2022/04/23 05:55:22;;;;;;;9.32;8.05;;;9.50;99.90;;;;;;4937169;28;20584;-77
2022/04/23 05:57:48;;;;;;;9.57;7.35;;;9.50;99.90;;;;;;4949889;28;20047;-77
2022/04/23 06:00:14;;;;;;;8.52;7.55;;;9.50;99.90;;;;;;4934810;28;20051;-77
2022/04/23 06:02:46;;;;;;;9.48;7.78;;;9.50;99.90;;;;;;4940905;28;20059;-77
2022/04/23 06:05:12;;;;;;;8.45;7.55;;;9.60;99.90;;;;;;4921013;28;20089;-77
2022/04/23 06:07:38;;;;;;;10.38;8.13;;;9.60;99.90;;;;;;4935273;28;20242;-77
2022/04/23 06:10:05;;;;;;;9.48;8.20;;;9.70;99.90;;;;;;4939466;28;20051;-77
2022/04/23 06:12:44;;;;;;;9.05;7.75;;;9.70;99.90;;;;;;4949084;28;20051;-77
2022/04/23 06:15:13;;;;;;;9.48;8.02;;;9.80;99.90;;;;;;4922602;28;20047;-77
2022/04/23 06:17:39;;;;;;;9.18;7.15;;;9.70;99.90;;;;;;4939128;28;20043;-77
2022/04/23 06:20:05;;;;;;;9.77;7.32;;;9.90;99.90;;;;;;4952859;28;20552;-78
2022/04/23 06:22:31;;;;;;;8.82;7.90;;;10.00;99.90;;;;;;4937000;28;20043;-77
2022/04/23 06:24:57;;;;;;;9.98;8.13;;;10.10;99.90;;;;;;4926686;28;20051;-77
2022/04/23 06:27:23;;;;;;;12.35;7.68;;;10.10;99.90;;;;;;4940909;28;20063;-77
2022/04/23 06:29:48;;;;;;;8.93;7.63;;;10.30;99.90;;;;;;4945223;28;20077;-77
2022/04/23 06:32:14;;;;;;;8.35;7.22;;;10.30;99.90;;;;;;4934193;28;20044;-78
2022/04/23 06:34:40;;;;;;;10.93;7.10;;;10.40;99.90;;;;;;4934736;28;20051;-77
2022/04/23 06:37:06;;;;;;;8.90;7.68;;;10.60;99.90;;;;;;4949523;28;20047;-78
2022/04/23 06:39:32;;;;;;;9.25;8.07;;;10.70;99.90;;;;;;4918711;28;20483;-77
2022/04/23 06:41:58;;;;;;;8.27;6.90;;;10.80;99.90;;;;;;4954746;28;20509;-77
2022/04/23 06:44:25;;;;;;;9.90;7.28;;;10.90;99.90;;;;;;4951839;28;20105;-76
2022/04/23 06:46:50;;;;;;;8.30;6.53;;;11.00;99.90;;;;;;4951446;28;20054;-76
2022/04/23 06:49:16;;;;;;;9.20;7.20;;;11.20;99.90;;;;;;4935280;28;20054;-76
2022/04/23 06:51:43;;;;;;;8.48;7.10;;;11.30;99.90;;;;;;4936440;28;20139;-76
2022/04/23 06:54:09;;;;;;;8.10;7.30;;;11.40;99.90;;;;;;4931468;28;20094;-77
2022/04/23 06:56:36;;;;;;;7.57;6.78;;;11.60;99.90;;;;;;4951126;28;20927;-77
2022/04/23 06:59:04;;;;;;;8.95;7.43;;;11.50;99.90;;;;;;4947155;28;20141;-77
2022/04/23 07:01:29;;;;;;;8.38;7.30;;;11.80;99.90;;;;;;4920537;28;20133;-76
2022/04/23 07:03:55;;;;;;;9.98;7.05;;;11.90;99.90;;;;;;4932026;28;20740;-74
2022/04/23 07:06:21;;;;;;;8.00;6.88;;;12.10;99.90;;;;;;4950728;28;20055;-77
2022/04/23 07:08:47;;;;;;;10.00;7.30;;;12.20;99.90;;;;;;4934649;28;20046;-78
2022/04/23 07:11:12;;;;;;;7.57;6.80;;;12.30;99.90;;;;;;4919092;28;20126;-78
2022/04/23 07:13:38;;;;;;;9.25;7.22;;;12.40;99.90;;;;;;4935450;28;20050;-77
2022/04/23 07:16:09;;;;;;;7.22;6.53;;;12.40;99.90;;;;;;4939486;28;20047;-77
2022/04/23 07:18:39;;;;;;;8.05;6.88;;;12.70;99.90;;;;;;4910400;28;20086;-78
2022/04/23 07:21:05;;;;;;;8.15;7.28;;;12.90;99.90;;;;;;4939617;28;20060;-77
2022/04/23 07:26:16;;;;;;;7.32;6.63;;;13.20;99.90;;;;;;4951300;28;20059;-77
2022/04/23 07:28:42;;;;;;;8.20;6.90;;;13.40;99.90;;;;;;4952139;28;20046;-80
2022/04/23 07:31:08;;;;;;;8.45;6.78;;;13.50;99.90;;;;;;4919785;28;20059;-77
2022/04/23 07:39:02;;;;;;;8.25;6.88;;;13.80;99.90;;;;;;4951140;28;20063;-78
2022/04/23 07:41:28;;;;;;;8.75;6.53;;;14.00;99.90;;;;;;4936092;28;20055;-77
2022/04/23 07:43:55;;;;;;;7.47;6.72;;;14.10;99.90;;;;;;4937035;28;20050;-78
2022/04/23 07:46:20;;;;;;;8.60;7.22;;;14.20;99.90;;;;;;4937549;28;20039;-77
2022/04/23 07:48:46;;;;;;;8.25;7.30;;;14.40;99.90;;;;;;4932841;28;20039;-79
2022/04/23 07:51:12;;;;;;;7.93;7.10;;;14.50;99.90;;;;;;4904165;28;20079;-78
2022/04/23 07:53:38;;;;;;;8.10;7.05;;;14.20;99.90;;;;;;4936416;28;20043;-78
2022/04/23 07:56:05;;;;;;;8.55;7.22;;;14.90;99.90;;;;;;4951394;28;20081;-78
2022/04/23 07:58:31;;;;;;;9.60;6.85;;;15.00;99.90;;;;;;4909846;28;20432;-78
2022/04/23 08:00:57;;;;;;;9.82;7.28;;;15.20;99.90;;;;;;4920286;28;20051;-78
2022/04/23 08:03:23;;;;;;;8.50;6.88;;;15.40;99.90;;;;;;4916972;28;20092;-78
2022/04/23 08:05:48;;;;;;;8.68;7.32;;;15.50;99.90;;;;;;4934371;28;20872;-77
2022/04/23 08:08:17;;;;;;;9.23;7.30;;;15.80;99.90;;;;;;4949957;28;20110;-77
2022/04/23 08:10:44;;;;;;;8.20;7.28;;;15.90;99.90;;;;;;4935830;28;20051;-77
2022/04/23 08:13:10;;;;;;;8.75;6.57;;;16.10;99.90;;;;;;4934392;28;20791;-78
2022/04/23 08:15:36;;;;;;;8.63;7.25;;;16.30;99.90;;;;;;4932210;28;20102;-78
2022/04/23 08:18:02;;;;;;;9.45;7.03;;;16.40;99.90;;;;;;4938367;28;20541;-77
2022/04/23 08:20:30;;;;;;;9.60;6.57;;;16.50;99.90;;;;;;4951093;28;20052;-78
2022/04/23 08:22:56;;;;;;;7.65;6.57;;;16.70;99.90;;;;;;4934345;28;20815;-80
2022/04/23 08:25:22;;;;;;;8.23;6.80;;;16.90;99.90;;;;;;4934028;28;20047;-78
2022/04/23 08:27:53;;;;;;;8.02;6.78;;;17.10;99.90;;;;;;4934213;28;20090;-78
2022/04/23 08:30:35;;;;;;;7.78;6.93;;;17.20;99.90;;;;;;4949382;28;20050;-78
2022/04/23 08:33:05;;;;;;;9.32;6.25;;;17.40;99.90;;;;;;4931453;28;20058;-78
2022/04/23 08:35:37;;;;;;;7.82;5.88;;;17.20;99.90;;;;;;4932654;28;20508;-77
2022/04/23 08:38:04;;;;;;;9.60;5.68;;;17.70;99.90;;;;;;4932756;28;20527;-77
2022/04/23 08:40:36;;;;;;;6.82;5.95;;;17.70;99.90;;;;;;4938009;28;20098;-77
2022/04/23 08:43:02;;;;;;;7.43;5.63;;;18.00;99.90;;;;;;4947870;28;20493;-77
2022/04/23 08:45:31;;;;;;;7.22;5.85;;;18.00;99.90;;;;;;4937548;28;20138;-77
2022/04/23 08:47:59;;;;;;;6.45;5.65;;;18.10;99.90;;;;;;4954590;28;20034;-77
2022/04/23 08:50:26;;;;;;;6.57;5.55;;;18.10;99.50;;;;;;4954570;28;20059;-78
2022/04/23 08:52:56;;;;;;;6.43;5.50;;;18.20;99.00;;;;;;4939361;28;20047;-77
2022/04/23 08:55:25;;;;;;;6.05;5.43;;;18.30;98.60;;;;;;4936344;28;20126;-78
2022/04/23 08:57:51;;;;;;;6.38;5.50;;;18.50;98.30;;;;;;4943683;28;20039;-78
2022/04/23 09:00:18;;;;;;;7.15;5.72;;;18.60;97.70;;;;;;4928887;28;20126;-77
2022/04/23 09:02:44;;;;;;;6.57;5.10;;;18.60;97.40;;;;;;4938580;28;20075;-78
2022/04/23 09:05:13;;;;;;;6.38;5.32;;;18.80;97.30;;;;;;4936691;28;20066;-78
2022/04/23 09:07:39;;;;;;;5.90;5.30;;;18.80;95.90;;;;;;4942581;28;20051;-78
2022/04/23 09:10:06;;;;;;;8.00;5.50;;;18.90;96.50;;;;;;4935414;28;20095;-77
2022/04/23 09:12:32;;;;;;;7.10;5.93;;;19.10;96.20;;;;;;4936146;28;20058;-78
2022/04/23 09:23:43;;;;;;;7.07;5.30;;;19.20;92.60;;;;;;4952839;28;20498;-81
2022/04/23 09:26:22;;;;;;;6.00;4.97;;;19.30;94.00;;;;;;4943616;28;20046;-78
2022/04/23 09:28:49;;;;;;;6.07;5.32;;;19.40;90.70;;;;;;4950882;28;20113;-81
2022/04/23 09:31:15;;;;;;;6.45;5.50;;;19.50;93.10;;;;;;4937913;28;20039;-78
2022/04/23 09:33:54;;;;;;;6.03;5.43;;;19.70;92.80;;;;;;4935889;28;20455;-80
2022/04/23 09:36:20;;;;;;;6.93;5.47;;;19.90;90.50;;;;;;4938715;28;20177;-79
2022/04/23 09:39:05;;;;;;;6.57;5.55;;;20.00;91.60;;;;;;4919961;28;20062;-79
2022/04/23 09:41:34;;;;;;;6.15;4.80;;;20.10;90.60;;;;;;4925079;28;20404;-77
2022/04/23 09:44:09;;;;;;;6.13;5.03;;;20.20;90.40;;;;;;4935970;28;20513;-77
2022/04/23 09:46:48;;;;;;;6.43;5.00;;;20.30;88.50;;;;;;4938096;28;20061;-78
2022/04/23 09:49:23;;;;;;;7.15;5.22;;;19.90;87.50;;;;;;4940676;28;20186;-78
2022/04/23 09:52:03;;;;;;;6.47;5.40;;;20.70;89.10;;;;;;4938215;28;20083;-84
2022/04/23 09:54:30;;;;;;;6.43;5.18;;;20.80;85.50;;;;;;4951496;28;20058;-79
2022/04/23 09:56:57;;;;;;;6.15;5.55;;;20.90;87.10;;;;;;4920937;28;20051;-78
2022/04/23 09:59:23;;;;;;;6.03;5.28;;;21.00;86.50;;;;;;4927186;28;20051;-81
2022/04/23 10:01:50;;;;;;;6.32;5.25;;;21.30;86.90;;;;;;4913509;28;20580;-79
2022/04/23 10:04:24;;;;;;;5.97;5.05;;;21.40;85.30;;;;;;4934544;28;20050;-79
2022/04/23 10:06:51;;;;;;;6.80;5.32;;;21.50;80.50;;;;;;4951459;28;20043;-80
2022/04/23 10:09:19;;;;;;;7.30;5.60;;;21.70;83.30;;;;;;4936624;28;20049;-79
2022/04/23 10:11:49;;;;;;;6.82;5.47;;;21.80;81.50;;;;;;4923258;28;20153;-78
2022/04/23 10:14:22;;;;;;;6.15;5.47;;;21.90;81.30;;;;;;4936433;28;20039;-78
2022/04/23 10:16:49;;;;;;;5.72;5.20;;;22.00;80.70;;;;;;4935448;28;20118;-76
2022/04/23 10:19:15;;;;;;;7.70;5.38;;;22.10;80.10;;;;;;4950180;28;20058;-79
2022/04/23 10:22:04;;;;;;;6.57;5.00;;;22.30;79.80;;;;;;4920359;28;20051;-80
2022/04/23 10:24:35;;;;;;;5.80;4.93;;;22.40;73.90;;;;;;4953115;28;20144;-78
2022/04/23 10:27:09;;;;;;;6.25;5.28;;;22.40;77.30;;;;;;4953102;28;20519;-80
2022/04/23 10:29:36;;;;;;;6.88;5.38;;;22.30;76.70;;;;;;4921825;28;20074;-79
2022/04/23 10:32:14;;;;;;;6.95;5.32;;;22.40;77.00;;;;;;4925101;28;20051;-81
2022/04/23 10:34:40;;;;;;;7.15;5.60;;;22.40;74.00;;;;;;4946779;28;20051;-80
2022/04/23 10:37:27;;;;;;;6.85;5.45;;;22.60;76.70;;;;;;4953769;28;20050;-78
2022/04/23 10:39:53;;;;;;;5.80;5.13;;;22.80;73.60;;;;;;4941209;28;20135;-79
2022/04/23 10:42:21;;;;;;;6.47;5.55;;;22.90;74.80;;;;;;4958956;28;20141;-79
2022/04/23 10:44:48;;;;;;;6.43;5.45;;;22.90;72.80;;;;;;4943200;28;20056;-78
2022/04/23 10:47:29;;;;;;;6.47;5.72;;;22.90;72.30;;;;;;4919295;28;20082;-80
2022/04/23 10:50:22;;;;;;;5.53;5.03;;;22.90;70.20;;;;;;4927751;28;20138;-77
2022/04/23 10:52:50;;;;;;;5.78;5.18;;;23.00;71.80;;;;;;4942039;28;20557;-76
2022/04/23 10:55:16;;;;;;;6.35;5.68;;;23.00;71.00;;;;;;4957832;28;20093;-79
2022/04/23 10:57:52;;;;;;;6.32;5.00;;;23.00;70.50;;;;;;4942627;28;20101;-81
2022/04/23 11:00:20;;;;;;;5.78;5.00;;;23.00;69.30;;;;;;4943721;28;20055;-79
2022/04/23 11:03:05;;;;;;;8.13;5.50;;;23.10;70.50;;;;;;4950978;28;20054;-79
2022/04/23 11:14:04;;;;;;;6.03;5.43;;;23.20;70.60;;;;;;4949995;28;20047;-79
2022/04/23 11:16:30;;;;;;;7.65;5.45;;;23.40;69.90;;;;;;4941550;28;20066;-80
2022/04/23 11:18:58;;;;;;;8.27;5.70;;;23.50;69.00;;;;;;4906995;28;20134;-77
2022/04/23 11:21:30;;;;;;;8.07;5.03;;;23.60;68.10;;;;;;4932607;28;20133;-78
2022/04/23 11:24:01;;;;;;;5.28;4.78;;;23.80;68.50;;;;;;4947108;28;20091;-79
2022/04/23 11:26:47;;;;;;;5.47;4.80;;;23.90;67.40;;;;;;4948140;28;20057;-79
2022/04/23 11:29:14;;;;;;;7.40;5.30;;;24.00;64.80;;;;;;4933800;28;20145;-77
2022/04/23 11:31:40;;;;;;;6.13;5.43;;;24.00;67.10;;;;;;4910675;28;20066;-79
2022/04/23 11:34:06;;;;;;;6.18;5.22;;;24.10;65.90;;;;;;4945693;28;20110;-78
2022/04/23 11:36:34;;;;;;;7.05;5.18;;;24.20;65.10;;;;;;4935961;28;20047;-78
2022/04/23 11:39:04;;;;;;;6.13;5.22;;;24.10;63.80;;;;;;4935174;28;20540;-80
2022/04/23 11:41:36;;;;;;;5.75;5.15;;;24.20;63.50;;;;;;4936078;28;20392;-79
2022/04/23 11:44:18;;;;;;;6.07;5.25;;;24.30;62.50;;;;;;4929788;28;20054;-79
2022/04/23 11:46:46;;;;;;;6.05;4.72;;;24.30;61.90;;;;;;4949712;28;20153;-80
2022/04/23 11:49:31;;;;;;;5.28;4.78;;;24.50;62.40;;;;;;4934288;28;22283;-79
2022/04/23 11:52:07;;;;;;;6.10;5.20;;;24.70;59.80;;;;;;4950557;28;20062;-80
2022/04/23 11:54:40;;;;;;;6.15;5.00;;;24.70;59.80;;;;;;4931168;28;20084;-79
2022/04/23 11:57:17;;;;;;;5.45;4.90;;;24.80;60.80;;;;;;4948959;28;20051;-80
2022/04/23 11:59:49;;;;;;;5.80;5.30;;;24.80;60.20;;;;;;4948466;28;20050;-80
2022/04/23 12:02:23;;;;;;;5.55;5.00;;;24.90;59.70;;;;;;4946926;28;20511;-79
2022/04/23 12:05:03;;;;;;;5.72;4.72;;;24.90;59.30;;;;;;4933716;28;20560;-79
2022/04/23 12:07:32;;;;;;;6.10;4.97;;;25.00;58.40;;;;;;4921456;28;20778;-80
2022/04/23 12:09:59;;;;;;;5.35;4.85;;;25.00;58.20;;;;;;4930116;28;20322;-79
2022/04/23 12:12:26;;;;;;;5.13;4.57;;;25.10;58.40;;;;;;4918632;28;20055;-79
2022/04/23 12:14:54;;;;;;;6.85;5.03;;;25.10;58.80;;;;;;4933160;28;20050;-77
2022/04/23 12:17:26;;;;;;;5.20;4.70;;;25.30;59.20;;;;;;4947946;28;20577;-74
2022/04/23 12:19:53;;;;;;;7.20;5.40;;;25.30;58.30;;;;;;4947812;28;20265;-76
2022/04/23 12:22:27;;;;;;;6.00;5.40;;;25.40;57.80;;;;;;4951293;28;21145;-76
2022/04/23 12:25:16;;;;;;;6.25;4.38;;;25.40;56.60;;;;;;4953440;28;20093;-77
2022/04/23 12:42:06;;;;;;;4.50;4.10;;;25.40;54.80;;;;;;4952816;28;20051;-76
2022/04/23 12:44:40;;;;;;;6.05;3.90;;;25.50;54.20;;;;;;4937169;28;20520;-77
2022/04/23 12:47:08;;;;;;;5.20;4.10;;;25.60;55.10;;;;;;4950878;28;20059;-76
2022/04/23 12:49:51;;;;;;;6.22;4.18;;;25.60;54.20;;;;;;4952931;28;20054;-76
2022/04/23 12:52:22;;;;;;;5.20;3.75;;;25.60;53.10;;;;;;4934514;28;20315;-77
2022/04/23 12:55:12;;;;;;;7.07;4.50;;;25.60;53.30;;;;;;4953303;28;20054;-79
2022/04/23 12:57:43;;;;;;;5.38;3.90;;;25.50;52.20;;;;;;4922463;28;20047;-77
2022/04/23 13:00:11;;;;;;;5.65;4.10;;;25.60;53.60;;;;;;4970044;28;20558;-77
2022/04/23 13:02:38;;;;;;;5.90;4.47;;;25.60;53.50;;;;;;4923995;28;20083;-76
2022/04/23 13:05:07;;;;;;;5.35;4.40;;;25.60;52.50;;;;;;4932222;28;20121;-76
2022/04/23 13:10:18;;;;;;;5.32;3.97;;;25.50;52.00;;;;;;4955309;28;20047;-74
2022/04/23 13:12:44;;;;;;;4.45;4.05;;;25.60;52.40;;;;;;4953658;28;20055;-77
2022/04/23 13:15:11;;;;;;;5.38;3.90;;;25.70;52.20;;;;;;4937569;28;20054;-76
2022/04/23 13:17:41;;;;;;;4.32;3.83;;;25.80;51.60;;;;;;4952764;28;20049;-75
2022/04/23 13:20:11;;;;;;;5.35;4.28;;;25.80;52.00;;;;;;4953630;28;21450;-76
2022/04/23 13:22:38;;;;;;;4.30;3.65;;;25.90;52.10;;;;;;4953457;28;20039;-75
2022/04/23 13:25:05;;;;;;;6.88;4.57;;;25.90;51.70;;;;;;4953357;28;20068;-76
2022/04/23 13:27:32;;;;;;;4.60;4.15;;;25.80;50.80;;;;;;4954638;28;20055;-76
2022/04/23 13:29:58;;;;;;;5.50;4.10;;;25.80;51.50;;;;;;4952862;28;20055;-76
2022/04/23 13:32:24;;;;;;;5.32;4.50;;;25.80;51.40;;;;;;4941214;28;20137;-76
2022/04/23 13:34:50;;;;;;;4.70;3.63;;;25.80;50.90;;;;;;4925420;28;20058;-78
2022/04/23 13:37:16;;;;;;;5.93;4.38;;;25.70;50.60;;;;;;4953844;28;20047;-77
2022/04/23 13:39:42;;;;;;;4.97;4.40;;;25.70;50.70;;;;;;4937164;28;20097;-74